Time;durP1;ratioP1;P1;durP2;ratioP2;P2;SDS_P1;SDS_P2;PMS_P1;PMS_P2;Temp;Humidity;BMP_temperature;BMP_pressure;BME280_temperature;BME280_humidity;BME280_pressure;Samples;Min_cycle;Max_cycle;Signal;HPM_P1;HPM_P2
2022/11/29 00:00:57;;;;;;;34.53;19.33;;;;;;;1.50;93.38;97796.50;6289766;28;20215;-44
2022/11/29 00:03:59;;;;;;;35.83;20.43;;;;;;;1.49;93.23;97795.63;6291101;28;20388;-44
2022/11/29 00:07:02;;;;;;;37.00;20.43;;;;;;;1.51;93.20;97795.53;6290482;28;20638;-44
2022/11/29 00:10:04;;;;;;;40.10;21.50;;;;;;;1.49;93.31;97793.03;6290720;28;20227;-44
2022/11/29 00:13:07;;;;;;;36.30;19.80;;;;;;;1.50;93.41;97788.69;6288647;28;20231;-44
2022/11/29 00:16:13;;;;;;;39.77;20.30;;;;;;;1.50;93.55;97791.28;6289572;28;20232;-44
2022/11/29 00:19:15;;;;;;;39.67;20.77;;;;;;;1.48;93.80;97789.59;6289421;28;20239;-44
2022/11/29 00:22:17;;;;;;;40.60;22.30;;;;;;;1.49;93.46;97790.44;6294745;28;20320;-45
2022/11/29 00:25:20;;;;;;;39.47;21.23;;;;;;;1.45;93.55;97791.47;6294283;28;20229;-44
2022/11/29 00:28:22;;;;;;;38.90;21.53;;;;;;;1.41;93.80;97788.13;6260840;28;20244;-44
2022/11/29 00:31:29;;;;;;;42.60;22.47;;;;;;;1.39;93.92;97782.19;6290664;28;20285;-44
2022/11/29 00:34:31;;;;;;;35.57;18.50;;;;;;;1.40;93.93;97783.00;6294794;28;20289;-44
2022/11/29 00:37:33;;;;;;;42.87;21.80;;;;;;;1.40;94.24;97778.66;6294811;28;20365;-44
2022/11/29 00:40:35;;;;;;;35.93;20.67;;;;;;;1.39;93.91;97776.97;6294015;28;20244;-44
2022/11/29 00:43:38;;;;;;;38.00;20.63;;;;;;;1.40;93.99;97788.19;6297078;28;20245;-44
2022/11/29 00:46:40;;;;;;;42.90;21.60;;;;;;;1.40;94.00;97780.41;6295758;28;20236;-43
2022/11/29 00:49:42;;;;;;;35.63;20.37;;;;;;;1.37;93.87;97784.00;6293850;28;20600;-44
2022/11/29 00:52:44;;;;;;;41.63;21.83;;;;;;;1.35;94.23;97780.59;6271010;28;20733;-43
2022/11/29 00:55:48;;;;;;;36.03;20.50;;;;;;;1.31;94.14;97786.84;6288300;28;20703;-44
2022/11/29 00:58:50;;;;;;;35.33;20.00;;;;;;;1.32;94.67;97788.53;6293338;28;20238;-44
2022/11/29 01:01:52;;;;;;;39.17;21.17;;;;;;;1.34;94.36;97789.31;6278647;28;20275;-44
2022/11/29 01:04:54;;;;;;;42.37;21.90;;;;;;;1.36;94.28;97789.25;6285324;28;20222;-44
2022/11/29 01:07:56;;;;;;;40.67;21.07;;;;;;;1.34;94.24;97791.91;6294708;28;20260;-44
2022/11/29 01:11:17;;;;;;;39.90;21.67;;;;;;;1.34;94.27;97789.31;6291898;28;20643;-43
2022/11/29 01:14:19;;;;;;;34.53;19.93;;;;;;;1.34;94.04;97788.47;6288435;28;20250;-44
2022/11/29 01:17:21;;;;;;;37.57;20.30;;;;;;;1.31;94.34;97784.22;6287479;28;20732;-43
2022/11/29 01:20:23;;;;;;;36.27;21.30;;;;;;;1.28;94.52;97784.38;6291950;28;20746;-44
2022/11/29 01:23:26;;;;;;;36.03;19.70;;;;;;;1.31;94.45;97786.84;6290858;28;20604;-44
2022/11/29 01:26:29;;;;;;;38.90;21.10;;;;;;;1.29;94.37;97786.06;6295293;28;20307;-43
2022/11/29 01:29:31;;;;;;;36.80;21.33;;;;;;;1.31;94.26;97792.03;6289004;28;20886;-44
2022/11/29 01:32:35;;;;;;;38.53;20.77;;;;;;;1.31;94.26;97789.44;6291016;28;20243;-44
2022/11/29 01:35:37;;;;;;;42.43;22.13;;;;;;;1.32;94.48;97791.13;6287234;28;20255;-44
2022/11/29 01:38:41;;;;;;;35.43;19.70;;;;;;;1.32;94.40;97793.72;6287173;28;20229;-44
2022/11/29 01:41:43;;;;;;;38.87;19.63;;;;;;;1.31;94.06;97791.19;6273306;28;20220;-44
2022/11/29 01:44:45;;;;;;;36.40;19.63;;;;;;;1.29;94.32;97799.06;6291326;28;20310;-44
2022/11/29 01:47:50;;;;;;;40.03;22.70;;;;;;;1.27;94.26;97787.03;6287724;28;20304;-46
2022/11/29 01:50:54;;;;;;;38.27;21.70;;;;;;;1.25;94.41;97791.44;6292493;28;20322;-43
2022/11/29 01:53:57;;;;;;;40.83;20.10;;;;;;;1.21;94.42;97798.50;6292002;28;20325;-44
2022/11/29 01:57:03;;;;;;;35.57;19.23;;;;;;;1.23;94.89;97790.66;6271367;28;20235;-44
2022/11/29 02:00:10;;;;;;;36.87;20.57;;;;;;;1.23;94.18;97799.31;6290784;28;20317;-44
2022/11/29 02:03:17;;;;;;;33.53;18.87;;;;;;;1.25;94.42;97781.91;6287573;28;20219;-44
2022/11/29 02:06:20;;;;;;;38.73;19.63;;;;;;;1.25;94.39;97787.09;6287291;28;20219;-44
2022/11/29 02:09:22;;;;;;;35.63;18.13;;;;;;;1.27;94.20;97784.44;6292660;28;20247;-44
2022/11/29 02:12:33;;;;;;;32.33;18.73;;;;;;;1.29;93.87;97782.63;6292168;28;20236;-45
2022/11/29 02:15:48;;;;;;;35.20;18.17;;;;;;;1.28;93.25;97788.72;6291350;28;20226;-44
2022/11/29 02:19:06;;;;;;;34.43;18.17;;;;;;;1.28;93.45;97783.53;6291671;28;21026;-45
2022/11/29 02:22:23;;;;;;;34.17;18.53;;;;;;;1.29;93.25;97787.81;6290475;28;20631;-44
2022/11/29 02:26:14;;;;;;;33.70;17.90;;;;;;;1.31;93.21;97781.63;6287159;28;20597;-44
2022/11/29 02:29:36;;;;;;;30.27;16.83;;;;;;;1.32;93.26;97783.31;6290334;28;20236;-44
2022/11/29 02:33:14;;;;;;;32.07;17.50;;;;;;;1.37;93.23;97780.53;6286803;28;20616;-44
2022/11/29 02:36:34;;;;;;;31.77;16.77;;;;;;;1.35;92.42;97780.59;6286671;28;20559;-44
2022/11/29 02:39:57;;;;;;;28.50;17.23;;;;;;;1.37;92.53;97790.94;6289957;28;20242;-44
2022/11/29 02:43:17;;;;;;;32.43;18.67;;;;;;;1.36;92.55;97781.44;6285648;28;20240;-44
2022/11/29 02:46:31;;;;;;;30.83;17.20;;;;;;;1.37;92.65;97783.16;6288251;28;20245;-44
2022/11/29 02:49:56;;;;;;;29.13;17.00;;;;;;;1.37;92.23;97781.41;6288727;28;20649;-44
2022/11/29 02:53:24;;;;;;;28.80;17.00;;;;;;;1.37;92.19;97781.41;6290345;28;20238;-43
2022/11/29 02:56:48;;;;;;;32.77;18.23;;;;;;;1.38;92.15;97790.03;6290861;28;20230;-44
2022/11/29 03:00:02;;;;;;;27.80;16.07;;;;;;;1.36;91.90;97789.25;6287071;28;20308;-44
2022/11/29 03:03:39;;;;;;;30.07;16.10;;;;;;;1.37;92.13;97797.00;6291298;28;20697;-44
2022/11/29 03:07:05;;;;;;;30.87;17.67;;;;;;;1.39;91.87;97804.72;6286632;28;20235;-45
2022/11/29 03:10:19;;;;;;;29.10;15.87;;;;;;;1.38;92.02;97806.50;6252605;28;20237;-45
2022/11/29 03:13:35;;;;;;;26.37;16.60;;;;;;;1.38;91.94;97809.09;6288164;28;20284;-44
2022/11/29 03:17:03;;;;;;;30.30;16.27;;;;;;;1.36;91.10;97804.84;6288091;28;20235;-44
2022/11/29 03:20:41;;;;;;;27.20;15.43;;;;;;;1.35;91.18;97797.97;6286251;28;20227;-44
2022/11/29 03:24:05;;;;;;;26.37;15.73;;;;;;;1.36;90.83;97803.09;6286489;28;20227;-44
2022/11/29 03:27:15;;;;;;;25.90;14.17;;;;;;;1.34;90.29;97810.09;6287885;28;20218;-44
2022/11/29 03:30:18;;;;;;;26.47;15.57;;;;;;;1.35;90.26;97811.81;6290861;28;20245;-43
2022/11/29 03:33:29;;;;;;;24.43;14.87;;;;;;;1.37;90.21;97814.34;6289154;28;20710;-43
2022/11/29 03:36:59;;;;;;;25.27;14.53;;;;;;;1.42;90.23;97820.19;6286449;28;20227;-44
2022/11/29 03:40:16;;;;;;;25.23;14.40;;;;;;;1.43;89.15;97822.72;6286288;28;20308;-44
2022/11/29 03:43:32;;;;;;;22.00;12.90;;;;;;;1.44;89.04;97823.56;6288356;28;20268;-44
2022/11/29 03:46:51;;;;;;;21.23;13.40;;;;;;;1.44;89.05;97821.81;6291472;28;20231;-44
2022/11/29 03:50:01;;;;;;;22.73;13.40;;;;;;;1.47;89.24;97829.50;6267254;28;20236;-44
2022/11/29 03:53:16;;;;;;;24.87;14.47;;;;;;;1.47;89.19;97820.84;6283397;28;20233;-44
2022/11/29 03:56:30;;;;;;;22.80;13.30;;;;;;;1.47;89.44;97834.69;6290328;28;20940;-44
2022/11/29 03:59:38;;;;;;;22.63;13.43;;;;;;;1.47;89.28;97818.25;6291142;28;20295;-44
2022/11/29 04:02:46;;;;;;;23.60;14.80;;;;;;;1.46;88.86;97814.81;6296487;28;20223;-43
2022/11/29 04:06:13;;;;;;;23.03;14.53;;;;;;;1.45;88.38;97836.50;6290375;28;20227;-43
2022/11/29 04:09:41;;;;;;;22.10;14.30;;;;;;;1.46;88.08;97830.41;6282054;28;20244;-44
2022/11/29 04:13:01;;;;;;;25.33;14.67;;;;;;;1.43;88.16;97832.28;6292621;28;20609;-44
2022/11/29 04:16:30;;;;;;;23.53;14.53;;;;;;;1.44;87.75;97834.81;6292729;28;20236;-47
2022/11/29 04:19:41;;;;;;;25.97;14.03;;;;;;;1.46;88.32;97842.56;6291130;28;20236;-44
2022/11/29 04:22:58;;;;;;;24.70;14.73;;;;;;;1.46;88.22;97838.22;6292064;28;20240;-45
2022/11/29 04:26:33;;;;;;;22.83;13.50;;;;;;;1.46;88.68;97835.59;6294172;28;20292;-43
2022/11/29 04:30:00;;;;;;;23.90;13.30;;;;;;;1.47;88.35;97831.25;6294211;28;20234;-44
2022/11/29 04:33:44;;;;;;;23.93;15.13;;;;;;;1.45;88.34;97849.53;6275807;28;20236;-43
2022/11/29 04:37:17;;;;;;;22.33;12.93;;;;;;;1.41;87.94;97852.28;6292281;28;20243;-43
2022/11/29 04:40:43;;;;;;;21.63;14.07;;;;;;;1.41;88.03;97847.94;6291407;28;20236;-44
2022/11/29 04:43:51;;;;;;;23.40;14.10;;;;;;;1.41;87.98;97852.28;6289333;28;20322;-43
2022/11/29 04:47:11;;;;;;;24.17;14.07;;;;;;;1.43;87.64;97847.88;6283674;28;20335;-44
2022/11/29 04:51:05;;;;;;;22.20;13.50;;;;;;;1.41;87.71;97849.69;6257374;28;20243;-44
2022/11/29 04:54:36;;;;;;;23.47;14.00;;;;;;;1.40;87.72;97851.44;6274482;28;20586;-43
2022/11/29 04:57:59;;;;;;;22.10;13.40;;;;;;;1.41;87.99;97852.28;6294842;28;20239;-43
2022/11/29 05:01:23;;;;;;;26.47;14.63;;;;;;;1.42;87.51;97856.59;6287951;28;20231;-44
2022/11/29 05:04:36;;;;;;;23.87;14.73;;;;;;;1.39;87.01;97854.13;6293112;28;20237;-44
2022/11/29 05:07:55;;;;;;;21.93;13.90;;;;;;;1.38;86.99;97861.09;6294136;28;20243;-44
2022/11/29 05:11:13;;;;;;;21.67;13.47;;;;;;;1.38;87.24;97863.69;6288917;28;20247;-44
2022/11/29 05:14:53;;;;;;;22.57;13.93;;;;;;;1.38;87.54;97857.63;6291971;28;20696;-44
2022/11/29 05:18:36;;;;;;;23.87;14.90;;;;;;;1.37;87.32;97864.59;6292106;28;20606;-43
2022/11/29 05:22:02;;;;;;;26.10;14.50;;;;;;;1.38;87.48;97868.88;6232244;28;20605;-45
2022/11/29 05:25:34;;;;;;;25.40;14.20;;;;;;;1.37;87.45;97866.34;6290845;28;20312;-44
2022/11/29 05:28:46;;;;;;;25.57;14.43;;;;;;;1.36;87.83;97873.28;6293544;28;20236;-44
2022/11/29 05:32:06;;;;;;;26.47;14.23;;;;;;;1.38;87.46;97876.69;6271868;28;20247;-44
2022/11/29 05:35:26;;;;;;;26.70;14.40;;;;;;;1.38;88.12;97878.44;6291786;28;20231;-44
2022/11/29 05:38:54;;;;;;;25.97;14.10;;;;;;;1.37;87.69;97877.59;6254564;28;20235;-44
2022/11/29 05:42:24;;;;;;;26.07;15.03;;;;;;;1.41;87.62;97886.09;6289158;28;20318;-43
2022/11/29 05:45:42;;;;;;;25.17;14.97;;;;;;;1.42;87.67;97882.59;6289506;28;20227;-43
2022/11/29 05:48:57;;;;;;;26.40;15.67;;;;;;;1.41;87.36;97876.53;6291769;28;20572;-43
2022/11/29 05:52:30;;;;;;;28.23;16.70;;;;;;;1.36;87.63;97885.44;6287704;28;20220;-43
2022/11/29 05:56:11;;;;;;;29.37;17.20;;;;;;;1.31;88.18;97884.78;6290213;28;20240;-43
2022/11/29 05:59:22;;;;;;;25.27;14.77;;;;;;;1.27;88.40;97884.06;6161593;28;20231;-43
2022/11/29 06:02:27;;;;;;;27.20;15.87;;;;;;;1.23;88.70;97889.44;6168871;28;20242;-44
2022/11/29 06:05:29;;;;;;;27.47;15.87;;;;;;;1.19;88.87;97891.34;6166042;28;20238;-44
2022/11/29 06:08:42;;;;;;;26.90;15.07;;;;;;;1.17;89.21;97894.88;6165174;28;20241;-44
2022/11/29 06:11:49;;;;;;;24.87;15.40;;;;;;;1.13;89.46;97895.91;6165378;28;20761;-43
2022/11/29 06:15:10;;;;;;;29.53;15.43;;;;;;;1.09;89.47;97898.66;6166225;28;20242;-43
2022/11/29 06:18:35;;;;;;;27.00;16.10;;;;;;;1.08;89.78;97896.09;6158817;28;20234;-43
2022/11/29 06:21:44;;;;;;;27.73;17.57;;;;;;;1.03;90.17;97896.25;6166977;28;20290;-44
2022/11/29 06:25:25;;;;;;;29.77;16.40;;;;;;;1.04;90.16;97912.69;6163634;28;20245;-44
2022/11/29 06:28:40;;;;;;;31.10;17.07;;;;;;;0.99;90.33;97902.50;6166842;28;20233;-43
2022/11/29 06:31:46;;;;;;;32.03;17.77;;;;;;;0.97;90.87;97917.28;6165890;28;20242;-44
2022/11/29 06:34:58;;;;;;;29.57;16.83;;;;;;;0.97;91.06;97919.91;6243550;28;20605;-44
2022/11/29 06:38:24;;;;;;;32.70;17.40;;;;;;;0.97;90.98;97921.66;6292536;28;20309;-44
2022/11/29 06:41:27;;;;;;;29.47;17.60;;;;;;;0.96;90.76;97919.94;6289558;28;20237;-44
2022/11/29 06:44:29;;;;;;;31.40;17.07;;;;;;;0.97;90.93;97927.69;6284903;28;20313;-44
2022/11/29 06:47:41;;;;;;;29.70;16.83;;;;;;;0.97;91.07;97926.84;6287590;28;20582;-44
2022/11/29 06:51:07;;;;;;;35.50;18.80;;;;;;;0.98;91.22;97932.00;6290831;28;20385;-44
2022/11/29 06:54:20;;;;;;;33.60;17.20;;;;;;;1.01;91.27;97934.44;6286888;28;20604;-43
2022/11/29 06:57:34;;;;;;;29.00;16.23;;;;;;;1.03;91.22;97939.59;6294077;28;20331;-43
2022/11/29 07:00:48;;;;;;;34.00;18.47;;;;;;;1.06;91.03;97926.50;6289269;28;20224;-43
2022/11/29 07:04:11;;;;;;;32.30;19.03;;;;;;;1.08;91.23;97937.69;6289233;28;20578;-44
2022/11/29 07:07:18;;;;;;;29.97;18.27;;;;;;;1.11;91.29;97937.53;6290078;28;20235;-44
2022/11/29 07:10:21;;;;;;;35.70;19.10;;;;;;;1.15;90.81;97933.94;6288421;28;20243;-44
2022/11/29 07:13:23;;;;;;;30.60;17.50;;;;;;;1.18;90.79;97935.56;6284992;28;20782;-44
2022/11/29 07:16:35;;;;;;;31.77;18.57;;;;;;;1.22;90.26;97942.31;6290723;28;20315;-44
2022/11/29 07:19:56;;;;;;;32.17;17.27;;;;;;;1.26;90.31;97943.91;6288836;28;20640;-44
2022/11/29 07:23:28;;;;;;;34.40;18.53;;;;;;;1.31;90.24;97948.00;6284982;28;20714;-44
2022/11/29 07:26:39;;;;;;;33.70;19.00;;;;;;;1.34;90.17;97942.69;6284983;28;20301;-47
2022/11/29 07:29:44;;;;;;;31.60;18.73;;;;;;;1.37;90.22;97945.19;6284577;28;20283;-43
2022/11/29 07:33:08;;;;;;;33.30;18.37;;;;;;;1.43;90.18;97952.75;6288900;28;20321;-44
2022/11/29 07:36:18;;;;;;;30.37;17.87;;;;;;;1.46;89.92;97959.56;6285471;28;20694;-44
2022/11/29 07:39:50;;;;;;;35.43;18.53;;;;;;;1.48;89.95;97961.22;6290780;28;20618;-44
2022/11/29 07:43:30;;;;;;;35.00;20.63;;;;;;;1.48;90.39;97961.22;6286776;28;20338;-44
2022/11/29 07:46:32;;;;;;;32.97;19.53;;;;;;;1.53;89.72;97968.81;6286995;28;20656;-44
2022/11/29 07:49:34;;;;;;;32.73;18.97;;;;;;;1.58;90.01;97976.47;6284585;28;20226;-44
2022/11/29 07:52:37;;;;;;;33.30;19.93;;;;;;;1.64;90.25;97973.59;6284956;28;20551;-44
2022/11/29 07:55:39;;;;;;;34.40;19.53;;;;;;;1.63;89.99;97970.16;6289503;28;20741;-44
2022/11/29 07:58:41;;;;;;;35.03;20.07;;;;;;;1.59;89.96;97973.81;6287384;28;20238;-44
2022/11/29 08:01:43;;;;;;;33.00;19.57;;;;;;;1.63;90.21;97972.75;6288505;28;20278;-44
2022/11/29 08:04:45;;;;;;;34.87;20.67;;;;;;;1.68;90.41;97978.63;6288852;28;20231;-44
2022/11/29 08:07:48;;;;;;;38.67;20.00;;;;;;;1.81;90.16;97978.97;6290411;28;20230;-46
2022/11/29 08:10:50;;;;;;;30.57;18.73;;;;;;;1.87;89.73;97981.34;6288022;28;20800;-44
2022/11/29 08:14:00;;;;;;;32.97;18.90;;;;;;;1.91;89.94;97982.03;6289518;28;20249;-43
2022/11/29 08:17:02;;;;;;;34.03;19.30;;;;;;;1.94;89.70;97981.91;6286915;28;20258;-44
2022/11/29 08:20:06;;;;;;;32.77;18.83;;;;;;;1.91;89.43;97984.63;6287998;28;20328;-43
2022/11/29 08:23:12;;;;;;;32.97;19.37;;;;;;;1.88;89.36;97983.03;6270523;28;20631;-44
2022/11/29 08:26:16;;;;;;;35.13;19.63;;;;;;;1.86;89.67;97990.03;6285809;28;20232;-44
2022/11/29 08:29:18;;;;;;;32.40;18.40;;;;;;;1.91;89.89;97995.03;6288731;28;20220;-44
2022/11/29 08:32:20;;;;;;;30.87;19.10;;;;;;;1.85;89.50;97997.00;6288432;28;20498;-44
2022/11/29 08:35:23;;;;;;;36.63;21.40;;;;;;;1.80;89.56;98001.53;6289646;28;20314;-45
2022/11/29 08:38:25;;;;;;;36.03;19.53;;;;;;;1.77;89.62;98009.47;6283049;28;20245;-44
2022/11/29 08:41:29;;;;;;;29.07;17.97;;;;;;;1.78;89.84;98003.38;6291094;28;20321;-44
2022/11/29 08:44:31;;;;;;;30.90;19.17;;;;;;;1.74;89.80;98008.75;6291481;28;20741;-44
2022/11/29 08:47:37;;;;;;;34.20;20.33;;;;;;;1.75;89.98;98003.47;6294196;28;20259;-44
2022/11/29 08:50:39;;;;;;;33.33;19.90;;;;;;;1.80;90.13;98018.91;6283869;28;20243;-43
2022/11/29 08:53:41;;;;;;;36.33;20.90;;;;;;;1.87;90.11;98017.75;6291599;28;20405;-44
2022/11/29 08:56:43;;;;;;;33.33;20.13;;;;;;;1.79;90.02;98023.28;6291101;28;20238;-45
2022/11/29 09:00:07;;;;;;;34.47;19.63;;;;;;;1.75;90.24;98015.66;6293236;28;20309;-43
2022/11/29 09:06:33;;;;;;;33.23;20.40;;;;;;;1.89;90.10;98021.16;6288054;28;20231;-44
2022/11/29 09:09:35;;;;;;;28.53;18.07;;;;;;;1.95;90.47;98017.44;6289006;28;20223;-44
2022/11/29 09:12:39;;;;;;;35.07;20.83;;;;;;;2.03;89.76;98010.16;6274626;28;20617;-44
2022/11/29 09:15:42;;;;;;;30.33;20.33;;;;;;;2.01;90.08;98027.59;6290719;28;20234;-44
2022/11/29 09:18:45;;;;;;;32.63;19.60;;;;;;;2.07;89.90;98017.81;6288485;28;20310;-43
2022/11/29 09:21:53;;;;;;;28.63;18.20;;;;;;;2.11;89.83;98021.09;6288381;28;20627;-44
2022/11/29 09:24:55;;;;;;;33.70;19.83;;;;;;;2.17;89.43;98010.47;6291491;28;20250;-44
2022/11/29 09:28:00;;;;;;;32.27;19.97;;;;;;;2.25;89.42;98010.13;6293740;28;20249;-44
2022/11/29 09:31:13;;;;;;;34.33;20.40;;;;;;;2.27;89.38;98016.97;6291973;28;20239;-44
2022/11/29 09:34:17;;;;;;;34.03;20.37;;;;;;;2.31;89.35;98009.88;6293338;28;20581;-43
2022/11/29 09:37:19;;;;;;;34.37;19.93;;;;;;;2.37;88.66;98009.63;6293350;28;20239;-44
2022/11/29 09:40:45;;;;;;;31.90;19.90;;;;;;;2.39;88.61;98016.47;6286035;28;20391;-44
2022/11/29 09:43:59;;;;;;;35.20;20.50;;;;;;;2.47;88.94;98011.78;6285881;28;20611;-44
2022/11/29 09:47:43;;;;;;;33.50;20.90;;;;;;;2.55;88.74;98016.66;6291396;28;20243;-44
2022/11/29 09:51:22;;;;;;;34.00;21.10;;;;;;;2.38;88.23;98016.53;6286015;28;20647;-45
2022/11/29 09:54:50;;;;;;;34.53;21.77;;;;;;;2.30;89.05;98013.38;6285914;28;20309;-44
2022/11/29 09:57:55;;;;;;;32.57;20.83;;;;;;;2.33;88.86;98014.09;6290304;28;20235;-44
2022/11/29 10:01:07;;;;;;;30.70;19.87;;;;;;;2.39;89.18;98011.25;6292570;28;20233;-44
2022/11/29 10:04:24;;;;;;;34.67;21.20;;;;;;;2.50;88.72;98013.38;6288637;28;20239;-46
2022/11/29 10:07:36;;;;;;;34.90;20.97;;;;;;;2.49;87.96;98002.16;6256375;28;20259;-44
2022/11/29 10:10:51;;;;;;;34.47;20.33;;;;;;;2.57;87.88;98001.81;6289321;28;20669;-43
2022/11/29 10:14:00;;;;;;;33.27;20.30;;;;;;;2.60;87.49;98012.94;6286871;28;20361;-44
2022/11/29 10:17:39;;;;;;;27.37;17.80;;;;;;;2.64;86.91;98007.59;6284785;28;20231;-44
2022/11/29 10:20:44;;;;;;;28.90;17.33;;;;;;;2.68;86.41;98009.16;6285781;28;20227;-44
2022/11/29 10:23:55;;;;;;;30.03;18.27;;;;;;;2.67;86.59;98010.94;6282597;28;20694;-44
2022/11/29 10:26:57;;;;;;;29.60;18.17;;;;;;;2.84;85.96;98008.41;6285620;28;20297;-44
2022/11/29 10:30:01;;;;;;;29.60;17.80;;;;;;;2.90;85.71;98007.28;6292908;28;20805;-44
2022/11/29 10:33:17;;;;;;;25.17;15.97;;;;;;;2.86;84.68;98005.75;6289677;28;20271;-44
2022/11/29 10:36:33;;;;;;;25.37;15.13;;;;;;;2.80;84.65;98004.25;6288679;28;20303;-43
2022/11/29 10:39:43;;;;;;;25.07;16.53;;;;;;;2.90;84.86;97999.47;6285607;28;20570;-44
2022/11/29 10:42:50;;;;;;;22.73;14.77;;;;;;;3.00;84.05;98003.34;6288598;28;20235;-44
2022/11/29 10:45:54;;;;;;;22.87;15.67;;;;;;;3.12;84.04;97999.34;6291035;28;20560;-46
2022/11/29 10:49:00;;;;;;;22.47;14.43;;;;;;;3.05;82.95;98000.56;6289310;28;20236;-45
2022/11/29 10:52:03;;;;;;;21.17;15.17;;;;;;;2.94;82.96;97994.06;6287214;28;20238;-44
2022/11/29 10:55:11;;;;;;;21.70;15.53;;;;;;;2.91;83.24;97994.19;6287929;28;20370;-44
2022/11/29 10:58:14;;;;;;;22.37;15.20;;;;;;;2.95;83.67;97987.94;6286108;28;20321;-44
2022/11/29 11:01:16;;;;;;;25.60;15.20;;;;;;;2.96;82.87;97988.78;6291075;28;20229;-44
2022/11/29 11:04:36;;;;;;;22.90;14.80;;;;;;;2.98;83.39;97986.97;6270904;28;20233;-43
2022/11/29 11:07:38;;;;;;;21.67;15.67;;;;;;;3.01;83.55;97986.81;6285938;28;20564;-44
2022/11/29 11:10:41;;;;;;;23.97;15.20;;;;;;;2.97;83.29;97988.72;6289508;28;20235;-44
2022/11/29 11:13:57;;;;;;;20.77;14.67;;;;;;;3.00;83.40;97989.47;6290700;28;20366;-44
2022/11/29 11:17:19;;;;;;;22.57;14.47;;;;;;;3.14;83.14;97982.72;6289953;28;20728;-44
2022/11/29 11:20:23;;;;;;;23.67;15.30;;;;;;;3.16;82.74;97983.50;6283994;28;20237;-44
2022/11/29 11:23:32;;;;;;;22.97;15.57;;;;;;;3.29;82.34;97997.66;6285455;28;20232;-43
2022/11/29 11:26:43;;;;;;;23.37;15.17;;;;;;;3.38;82.58;97982.53;6285633;28;20604;-43
2022/11/29 11:29:54;;;;;;;21.43;15.07;;;;;;;3.40;82.37;97991.94;6288720;28;20651;-43
2022/11/29 11:33:06;;;;;;;20.60;15.00;;;;;;;3.42;81.89;97990.13;6281676;28;20291;-44
2022/11/29 11:36:14;;;;;;;20.40;15.10;;;;;;;3.39;80.94;97987.69;6283461;28;20619;-44
2022/11/29 11:39:21;;;;;;;20.83;15.10;;;;;;;3.45;80.98;97994.34;6289883;28;20222;-44
2022/11/29 11:42:39;;;;;;;20.93;15.00;;;;;;;3.54;81.80;97992.16;6287942;28;20279;-45
2022/11/29 11:45:49;;;;;;;20.07;14.77;;;;;;;3.51;81.80;97987.06;6283017;28;20302;-44
2022/11/29 11:48:51;;;;;;;19.90;14.17;;;;;;;3.44;81.10;97995.28;6287041;28;20221;-44
2022/11/29 11:51:53;;;;;;;20.23;14.53;;;;;;;3.44;80.83;97992.66;6288967;28;20240;-44
2022/11/29 11:55:02;;;;;;;19.27;13.37;;;;;;;3.28;80.83;97996.00;6286951;28;20308;-44
2022/11/29 11:58:06;;;;;;;18.93;13.20;;;;;;;3.26;81.37;97996.97;6287977;28;20658;-44
2022/11/29 12:01:11;;;;;;;18.47;13.57;;;;;;;3.26;81.14;97991.75;6289550;28;20233;-44
2022/11/29 12:04:22;;;;;;;20.83;14.17;;;;;;;3.19;80.45;97995.56;6288528;28;20610;-44
2022/11/29 12:07:34;;;;;;;20.50;14.27;;;;;;;3.08;80.89;98003.03;6284925;28;20973;-43
2022/11/29 12:11:04;;;;;;;19.63;13.57;;;;;;;2.99;81.53;97999.09;6266777;28;20230;-44
2022/11/29 12:14:19;;;;;;;18.77;13.07;;;;;;;3.06;81.54;98003.09;6288383;28;20234;-44
2022/11/29 12:17:27;;;;;;;19.80;13.87;;;;;;;3.04;81.57;98001.47;6289968;28;20262;-44
2022/11/29 12:20:38;;;;;;;18.90;14.30;;;;;;;3.06;81.48;98000.50;6288251;28;20232;-44
2022/11/29 12:23:48;;;;;;;20.23;13.80;;;;;;;3.15;81.78;97999.22;6286843;28;20259;-45
2022/11/29 12:26:52;;;;;;;19.03;13.73;;;;;;;3.23;81.45;97995.34;6286476;28;20230;-44
2022/11/29 12:29:59;;;;;;;18.77;13.33;;;;;;;3.21;80.63;97998.94;6291876;28;20249;-44
2022/11/29 12:33:24;;;;;;;16.03;11.67;;;;;;;3.25;80.16;97993.53;6292911;28;20324;-43
2022/11/29 12:37:09;;;;;;;19.33;13.40;;;;;;;3.32;80.26;97988.84;6290417;28;20240;-43
2022/11/29 12:40:20;;;;;;;14.40;10.80;;;;;;;3.18;78.80;97994.72;6291984;28;20256;-44
2022/11/29 12:43:22;;;;;;;17.87;12.67;;;;;;;3.16;79.77;97998.31;6274813;28;20226;-44
2022/11/29 12:46:26;;;;;;;17.63;12.53;;;;;;;3.16;80.01;98001.78;6292304;28;20595;-43
2022/11/29 12:49:42;;;;;;;15.60;11.80;;;;;;;3.16;79.62;98000.91;6292401;28;20233;-44
2022/11/29 12:53:16;;;;;;;18.20;12.83;;;;;;;3.18;79.46;97999.94;6288474;28;20242;-44
2022/11/29 12:56:49;;;;;;;18.97;13.77;;;;;;;3.18;79.85;97999.09;6277212;28;20227;-44
2022/11/29 13:00:13;;;;;;;17.80;12.77;;;;;;;3.10;78.71;98007.25;6292129;28;20233;-44
2022/11/29 13:03:36;;;;;;;14.07;10.83;;;;;;;3.12;79.23;98000.19;6292500;28;20252;-44
2022/11/29 13:06:48;;;;;;;15.77;12.07;;;;;;;3.19;78.98;98003.41;6288723;28;20230;-44
2022/11/29 13:10:18;;;;;;;14.90;11.23;;;;;;;3.15;78.51;98012.25;6284394;28;20234;-44
2022/11/29 13:13:47;;;;;;;16.27;11.37;;;;;;;3.16;78.49;98006.13;6271749;28;20244;-44
2022/11/29 13:17:04;;;;;;;14.40;10.87;;;;;;;3.23;78.75;97999.72;6274759;28;20331;-44
2022/11/29 13:20:24;;;;;;;17.80;11.13;;;;;;;3.23;78.71;98017.97;6294522;28;20388;-43
2022/11/29 13:23:42;;;;;;;15.67;11.60;;;;;;;3.23;78.02;98005.78;6286995;28;20256;-44
2022/11/29 13:27:06;;;;;;;14.73;11.03;;;;;;;3.23;78.75;98018.81;6284682;28;20238;-44
2022/11/29 13:30:13;;;;;;;13.10;10.33;;;;;;;3.19;77.40;98021.66;6290501;28;20333;-46
2022/11/29 13:33:25;;;;;;;14.33;10.33;;;;;;;3.21;78.40;98018.03;6287922;28;20248;-44
2022/11/29 13:36:51;;;;;;;14.67;11.00;;;;;;;3.24;77.91;98025.72;6271525;28;20244;-44
2022/11/29 13:40:17;;;;;;;19.57;12.00;;;;;;;3.22;77.60;98029.31;6250096;28;20701;-44
2022/11/29 13:43:32;;;;;;;15.07;11.07;;;;;;;3.23;77.63;98018.81;6291650;28;20263;-44
2022/11/29 13:47:04;;;;;;;15.43;10.83;;;;;;;3.29;77.41;98025.53;6288285;28;20241;-43
2022/11/29 13:50:38;;;;;;;14.00;10.20;;;;;;;3.28;76.94;98026.44;6291337;28;20240;-44
2022/11/29 13:53:42;;;;;;;16.70;11.13;;;;;;;3.28;77.28;98029.06;6285853;28;20239;-44
2022/11/29 13:57:09;;;;;;;14.30;10.17;;;;;;;3.23;77.40;98034.47;6287503;28;20245;-44
2022/11/29 14:00:27;;;;;;;15.37;10.13;;;;;;;3.15;77.07;98028.75;6289544;28;20709;-44
2022/11/29 14:03:41;;;;;;;14.80;10.67;;;;;;;3.10;77.45;98035.06;6273370;28;20245;-44
2022/11/29 14:06:44;;;;;;;14.70;10.53;;;;;;;3.05;77.29;98029.22;6286642;28;20241;-45
2022/11/29 14:09:57;;;;;;;14.60;10.57;;;;;;;2.96;77.61;98033.94;6291074;28;20229;-44
2022/11/29 14:13:00;;;;;;;13.90;10.73;;;;;;;2.90;77.59;98033.34;6289632;28;20314;-44
2022/11/29 14:16:05;;;;;;;13.80;10.53;;;;;;;2.90;77.51;98035.97;6290209;28;20225;-44
2022/11/29 14:19:07;;;;;;;13.97;10.63;;;;;;;2.90;77.80;98036.81;6284982;28;20789;-44
2022/11/29 14:22:18;;;;;;;13.43;10.27;;;;;;;2.90;78.00;98033.34;6290299;28;20229;-44
2022/11/29 14:25:22;;;;;;;17.13;12.37;;;;;;;2.81;78.41;98038.97;6287213;28;20874;-43
2022/11/29 14:28:44;;;;;;;13.97;10.63;;;;;;;2.78;79.24;98039.97;6290050;28;20304;-44
2022/11/29 14:31:50;;;;;;;17.07;12.00;;;;;;;2.70;79.19;98046.41;6283100;28;20238;-44
2022/11/29 14:35:10;;;;;;;16.33;11.83;;;;;;;2.66;79.33;98052.69;6288401;28;20280;-44
2022/11/29 14:39:03;;;;;;;17.23;12.70;;;;;;;2.63;79.56;98044.97;6286740;28;20290;-43
2022/11/29 14:42:15;;;;;;;18.13;12.80;;;;;;;2.53;80.59;98053.19;6269819;28;20265;-44
2022/11/29 14:45:24;;;;;;;17.70;12.07;;;;;;;2.47;80.41;98048.25;6290041;28;20221;-44
2022/11/29 14:48:30;;;;;;;17.00;12.03;;;;;;;2.46;80.75;98048.31;6289416;28;20229;-44
2022/11/29 14:51:33;;;;;;;18.97;13.00;;;;;;;2.42;80.85;98047.56;6285481;28;20349;-44
2022/11/29 14:54:52;;;;;;;17.97;12.60;;;;;;;2.38;81.28;98042.56;6286834;28;20869;-44
2022/11/29 14:58:04;;;;;;;18.23;12.40;;;;;;;2.31;81.76;98047.16;6285987;28;20228;-44
2022/11/29 15:01:07;;;;;;;17.87;12.67;;;;;;;2.27;81.49;98044.78;6287154;28;20232;-44